sensor_id;sensor_type;location;lat;lon;timestamp;P1;P2;P0
73631;PMS5003;61924;53.268;-2.458;2022-12-18T00:00:12;9;8;
73631;PMS5003;61924;53.268;-2.458;2022-12-18T00:02:37;7;6;
73631;PMS5003;61924;53.268;-2.458;2022-12-18T00:05:03;9;9;
73631;PMS5003;61924;53.268;-2.458;2022-12-18T00:07:28;8;8;
73631;PMS5003;61924;53.268;-2.458;2022-12-18T00:09:54;9;8;
73631;PMS5003;61924;53.268;-2.458;2022-12-18T00:12:19;7;6;
73631;PMS5003;61924;53.268;-2.458;2022-12-18T00:14:44;7;7;
73631;PMS5003;61924;53.268;-2.458;2022-12-18T00:17:10;9;9;
73631;PMS5003;61924;53.268;-2.458;2022-12-18T00:19:35;8;8;
73631;PMS5003;61924;53.268;-2.458;2022-12-18T00:22:01;9;8;
73631;PMS5003;61924;53.268;-2.458;2022-12-18T00:24:27;9;8;
73631;PMS5003;61924;53.268;-2.458;2022-12-18T00:26:52;8;7;
73631;PMS5003;61924;53.268;-2.458;2022-12-18T00:29:18;6;6;
73631;PMS5003;61924;53.268;-2.458;2022-12-18T00:31:43;9;9;
73631;PMS5003;61924;53.268;-2.458;2022-12-18T00:34:09;6;6;
73631;PMS5003;61924;53.268;-2.458;2022-12-18T00:36:34;9;7;
73631;PMS5003;61924;53.268;-2.458;2022-12-18T00:39:00;7;7;
73631;PMS5003;61924;53.268;-2.458;2022-12-18T00:41:25;8;8;
73631;PMS5003;61924;53.268;-2.458;2022-12-18T00:43:50;7;7;
73631;PMS5003;61924;53.268;-2.458;2022-12-18T00:46:15;9;9;
73631;PMS5003;61924;53.268;-2.458;2022-12-18T00:48:41;10;9;
73631;PMS5003;61924;53.268;-2.458;2022-12-18T00:51:06;8;8;
73631;PMS5003;61924;53.268;-2.458;2022-12-18T00:53:31;8;7;
73631;PMS5003;61924;53.268;-2.458;2022-12-18T00:55:57;8;8;
73631;PMS5003;61924;53.268;-2.458;2022-12-18T00:58:22;9;9;
73631;PMS5003;61924;53.268;-2.458;2022-12-18T01:00:48;9;9;
73631;PMS5003;61924;53.268;-2.458;2022-12-18T01:03:13;8;7;
73631;PMS5003;61924;53.268;-2.458;2022-12-18T01:05:39;9;9;
73631;PMS5003;61924;53.268;-2.458;2022-12-18T01:08:05;9;8;
73631;PMS5003;61924;53.268;-2.458;2022-12-18T01:10:30;8;8;
73631;PMS5003;61924;53.268;-2.458;2022-12-18T01:12:55;8;8;
73631;PMS5003;61924;53.268;-2.458;2022-12-18T01:15:21;7;7;
73631;PMS5003;61924;53.268;-2.458;2022-12-18T01:17:46;7;7;
73631;PMS5003;61924;53.268;-2.458;2022-12-18T01:20:12;7;7;
73631;PMS5003;61924;53.268;-2.458;2022-12-18T01:22:37;7;7;
73631;PMS5003;61924;53.268;-2.458;2022-12-18T01:25:03;9;8;
73631;PMS5003;61924;53.268;-2.458;2022-12-18T01:27:28;9;9;
73631;PMS5003;61924;53.268;-2.458;2022-12-18T01:29:53;6;6;
73631;PMS5003;61924;53.268;-2.458;2022-12-18T01:32:19;4;4;
73631;PMS5003;61924;53.268;-2.458;2022-12-18T01:34:44;5;5;
73631;PMS5003;61924;53.268;-2.458;2022-12-18T01:37:10;5;5;
73631;PMS5003;61924;53.268;-2.458;2022-12-18T01:39:35;7;7;
73631;PMS5003;61924;53.268;-2.458;2022-12-18T01:42:02;6;6;
73631;PMS5003;61924;53.268;-2.458;2022-12-18T01:45:00;6;6;
73631;PMS5003;61924;53.268;-2.458;2022-12-18T01:46:51;6;6;
73631;PMS5003;61924;53.268;-2.458;2022-12-18T01:49:17;6;6;
73631;PMS5003;61924;53.268;-2.458;2022-12-18T01:51:42;5;5;
73631;PMS5003;61924;53.268;-2.458;2022-12-18T01:54:07;7;6;
73631;PMS5003;61924;53.268;-2.458;2022-12-18T01:56:33;6;6;
73631;PMS5003;61924;53.268;-2.458;2022-12-18T01:58:59;7;7;
73631;PMS5003;61924;53.268;-2.458;2022-12-18T02:01:24;6;6;
73631;PMS5003;61924;53.268;-2.458;2022-12-18T02:03:50;7;7;
73631;PMS5003;61924;53.268;-2.458;2022-12-18T02:06:16;7;7;
73631;PMS5003;61924;53.268;-2.458;2022-12-18T02:08:42;7;7;
73631;PMS5003;61924;53.268;-2.458;2022-12-18T02:11:07;7;6;
73631;PMS5003;61924;53.268;-2.458;2022-12-18T02:13:34;6;6;
73631;PMS5003;61924;53.268;-2.458;2022-12-18T02:15:58;6;6;
73631;PMS5003;61924;53.268;-2.458;2022-12-18T02:18:24;7;7;
73631;PMS5003;61924;53.268;-2.458;2022-12-18T02:20:48;6;5;
73631;PMS5003;61924;53.268;-2.458;2022-12-18T02:23:24;6;6;
73631;PMS5003;61924;53.268;-2.458;2022-12-18T02:25:42;7;7;
73631;PMS5003;61924;53.268;-2.458;2022-12-18T02:28:05;7;7;
73631;PMS5003;61924;53.268;-2.458;2022-12-18T02:30:30;7;6;
73631;PMS5003;61924;53.268;-2.458;2022-12-18T02:32:56;6;6;
73631;PMS5003;61924;53.268;-2.458;2022-12-18T02:35:22;5;5;
73631;PMS5003;61924;53.268;-2.458;2022-12-18T02:37:46;6;5;
73631;PMS5003;61924;53.268;-2.458;2022-12-18T02:40:11;7;7;
73631;PMS5003;61924;53.268;-2.458;2022-12-18T02:42:37;6;6;
73631;PMS5003;61924;53.268;-2.458;2022-12-18T02:45:03;6;6;
73631;PMS5003;61924;53.268;-2.458;2022-12-18T02:47:29;7;7;
73631;PMS5003;61924;53.268;-2.458;2022-12-18T02:49:56;6;6;
73631;PMS5003;61924;53.268;-2.458;2022-12-18T02:52:22;4;4;
73631;PMS5003;61924;53.268;-2.458;2022-12-18T02:54:50;8;7;
73631;PMS5003;61924;53.268;-2.458;2022-12-18T02:57:13;4;4;
73631;PMS5003;61924;53.268;-2.458;2022-12-18T02:59:37;7;7;
73631;PMS5003;61924;53.268;-2.458;2022-12-18T03:02:02;4;4;
73631;PMS5003;61924;53.268;-2.458;2022-12-18T03:04:27;5;5;
73631;PMS5003;61924;53.268;-2.458;2022-12-18T03:06:53;5;5;
73631;PMS5003;61924;53.268;-2.458;2022-12-18T03:09:17;6;6;
73631;PMS5003;61924;53.268;-2.458;2022-12-18T03:11:42;5;5;
73631;PMS5003;61924;53.268;-2.458;2022-12-18T03:14:07;8;5;
73631;PMS5003;61924;53.268;-2.458;2022-12-18T03:16:33;7;6;
73631;PMS5003;61924;53.268;-2.458;2022-12-18T03:18:58;6;6;
73631;PMS5003;61924;53.268;-2.458;2022-12-18T03:21:25;4;4;
73631;PMS5003;61924;53.268;-2.458;2022-12-18T03:23:49;6;6;
73631;PMS5003;61924;53.268;-2.458;2022-12-18T03:26:15;7;6;
73631;PMS5003;61924;53.268;-2.458;2022-12-18T03:28:40;5;5;
73631;PMS5003;61924;53.268;-2.458;2022-12-18T03:31:05;6;6;
73631;PMS5003;61924;53.268;-2.458;2022-12-18T03:33:30;5;5;
73631;PMS5003;61924;53.268;-2.458;2022-12-18T03:35:55;6;6;
73631;PMS5003;61924;53.268;-2.458;2022-12-18T03:38:20;5;5;
73631;PMS5003;61924;53.268;-2.458;2022-12-18T03:40:50;7;6;
73631;PMS5003;61924;53.268;-2.458;2022-12-18T03:43:15;6;6;
73631;PMS5003;61924;53.268;-2.458;2022-12-18T03:45:37;5;5;
73631;PMS5003;61924;53.268;-2.458;2022-12-18T03:48:03;7;6;
73631;PMS5003;61924;53.268;-2.458;2022-12-18T03:50:30;7;7;
73631;PMS5003;61924;53.268;-2.458;2022-12-18T03:52:55;6;6;
73631;PMS5003;61924;53.268;-2.458;2022-12-18T03:55:19;6;6;
73631;PMS5003;61924;53.268;-2.458;2022-12-18T03:57:44;6;6;
73631;PMS5003;61924;53.268;-2.458;2022-12-18T04:00:10;5;5;
73631;PMS5003;61924;53.268;-2.458;2022-12-18T04:02:35;5;5;
73631;PMS5003;61924;53.268;-2.458;2022-12-18T04:05:01;7;7;
73631;PMS5003;61924;53.268;-2.458;2022-12-18T04:07:26;5;5;
73631;PMS5003;61924;53.268;-2.458;2022-12-18T04:09:51;7;7;
73631;PMS5003;61924;53.268;-2.458;2022-12-18T04:12:17;7;7;
73631;PMS5003;61924;53.268;-2.458;2022-12-18T04:14:42;6;6;
73631;PMS5003;61924;53.268;-2.458;2022-12-18T04:17:08;7;7;
73631;PMS5003;61924;53.268;-2.458;2022-12-18T04:19:33;4;4;
73631;PMS5003;61924;53.268;-2.458;2022-12-18T04:21:58;6;6;
73631;PMS5003;61924;53.268;-2.458;2022-12-18T04:24:24;5;5;
73631;PMS5003;61924;53.268;-2.458;2022-12-18T04:26:49;4;4;
73631;PMS5003;61924;53.268;-2.458;2022-12-18T04:29:14;7;7;
73631;PMS5003;61924;53.268;-2.458;2022-12-18T04:31:40;9;8;
73631;PMS5003;61924;53.268;-2.458;2022-12-18T04:34:05;8;7;
73631;PMS5003;61924;53.268;-2.458;2022-12-18T04:36:30;8;7;
73631;PMS5003;61924;53.268;-2.458;2022-12-18T04:38:56;6;5;
73631;PMS5003;61924;53.268;-2.458;2022-12-18T04:41:21;6;6;
73631;PMS5003;61924;53.268;-2.458;2022-12-18T04:43:46;7;7;
73631;PMS5003;61924;53.268;-2.458;2022-12-18T04:46:11;6;6;
73631;PMS5003;61924;53.268;-2.458;2022-12-18T04:48:37;7;7;
73631;PMS5003;61924;53.268;-2.458;2022-12-18T04:51:03;6;6;
73631;PMS5003;61924;53.268;-2.458;2022-12-18T04:53:27;9;9;
73631;PMS5003;61924;53.268;-2.458;2022-12-18T04:56:01;8;7;
73631;PMS5003;61924;53.268;-2.458;2022-12-18T04:58:18;7;6;
73631;PMS5003;61924;53.268;-2.458;2022-12-18T05:00:43;5;5;
73631;PMS5003;61924;53.268;-2.458;2022-12-18T05:03:09;8;7;
73631;PMS5003;61924;53.268;-2.458;2022-12-18T05:05:35;8;7;
73631;PMS5003;61924;53.268;-2.458;2022-12-18T05:08:00;7;7;
73631;PMS5003;61924;53.268;-2.458;2022-12-18T05:10:26;6;6;
73631;PMS5003;61924;53.268;-2.458;2022-12-18T05:12:52;8;7;
73631;PMS5003;61924;53.268;-2.458;2022-12-18T05:15:17;7;7;
73631;PMS5003;61924;53.268;-2.458;2022-12-18T05:17:43;8;7;
73631;PMS5003;61924;53.268;-2.458;2022-12-18T05:20:09;8;8;
73631;PMS5003;61924;53.268;-2.458;2022-12-18T05:22:33;8;8;
73631;PMS5003;61924;53.268;-2.458;2022-12-18T05:24:59;9;9;
73631;PMS5003;61924;53.268;-2.458;2022-12-18T05:27:24;6;6;
73631;PMS5003;61924;53.268;-2.458;2022-12-18T05:29:50;8;7;
73631;PMS5003;61924;53.268;-2.458;2022-12-18T05:32:15;8;7;
73631;PMS5003;61924;53.268;-2.458;2022-12-18T05:34:40;9;8;
73631;PMS5003;61924;53.268;-2.458;2022-12-18T05:37:06;5;5;
73631;PMS5003;61924;53.268;-2.458;2022-12-18T05:39:31;8;8;
73631;PMS5003;61924;53.268;-2.458;2022-12-18T05:41:57;7;7;
73631;PMS5003;61924;53.268;-2.458;2022-12-18T05:44:22;7;7;
73631;PMS5003;61924;53.268;-2.458;2022-12-18T05:46:48;7;7;
73631;PMS5003;61924;53.268;-2.458;2022-12-18T05:49:14;8;8;
73631;PMS5003;61924;53.268;-2.458;2022-12-18T05:51:39;10;10;
73631;PMS5003;61924;53.268;-2.458;2022-12-18T05:54:05;7;7;
73631;PMS5003;61924;53.268;-2.458;2022-12-18T05:56:30;7;7;
73631;PMS5003;61924;53.268;-2.458;2022-12-18T05:58:55;7;6;
73631;PMS5003;61924;53.268;-2.458;2022-12-18T06:01:22;7;6;
73631;PMS5003;61924;53.268;-2.458;2022-12-18T06:03:46;7;7;
73631;PMS5003;61924;53.268;-2.458;2022-12-18T06:06:12;9;8;
73631;PMS5003;61924;53.268;-2.458;2022-12-18T06:08:36;6;6;
73631;PMS5003;61924;53.268;-2.458;2022-12-18T06:11:02;6;6;
73631;PMS5003;61924;53.268;-2.458;2022-12-18T06:13:27;7;7;
73631;PMS5003;61924;53.268;-2.458;2022-12-18T06:15:52;6;6;
73631;PMS5003;61924;53.268;-2.458;2022-12-18T06:18:17;9;9;
73631;PMS5003;61924;53.268;-2.458;2022-12-18T06:20:43;8;8;
73631;PMS5003;61924;53.268;-2.458;2022-12-18T06:23:09;7;7;
73631;PMS5003;61924;53.268;-2.458;2022-12-18T06:25:36;9;9;
73631;PMS5003;61924;53.268;-2.458;2022-12-18T06:27:59;9;9;
73631;PMS5003;61924;53.268;-2.458;2022-12-18T06:30:25;9;7;
73631;PMS5003;61924;53.268;-2.458;2022-12-18T06:32:50;11;11;
73631;PMS5003;61924;53.268;-2.458;2022-12-18T06:35:16;9;9;
73631;PMS5003;61924;53.268;-2.458;2022-12-18T06:37:41;8;8;
73631;PMS5003;61924;53.268;-2.458;2022-12-18T06:40:08;10;9;
73631;PMS5003;61924;53.268;-2.458;2022-12-18T06:42:33;12;12;
73631;PMS5003;61924;53.268;-2.458;2022-12-18T06:44:58;9;9;
73631;PMS5003;61924;53.268;-2.458;2022-12-18T06:47:24;8;8;
73631;PMS5003;61924;53.268;-2.458;2022-12-18T06:49:50;10;9;
73631;PMS5003;61924;53.268;-2.458;2022-12-18T06:52:15;12;11;
73631;PMS5003;61924;53.268;-2.458;2022-12-18T06:54:41;10;9;
73631;PMS5003;61924;53.268;-2.458;2022-12-18T06:57:06;8;8;
73631;PMS5003;61924;53.268;-2.458;2022-12-18T06:59:32;10;9;
73631;PMS5003;61924;53.268;-2.458;2022-12-18T07:01:57;10;9;
73631;PMS5003;61924;53.268;-2.458;2022-12-18T07:04:26;10;9;
73631;PMS5003;61924;53.268;-2.458;2022-12-18T07:06:47;9;8;
73631;PMS5003;61924;53.268;-2.458;2022-12-18T07:09:12;7;7;
73631;PMS5003;61924;53.268;-2.458;2022-12-18T07:11:38;7;7;
73631;PMS5003;61924;53.268;-2.458;2022-12-18T07:14:03;8;8;
73631;PMS5003;61924;53.268;-2.458;2022-12-18T07:16:29;9;9;
73631;PMS5003;61924;53.268;-2.458;2022-12-18T07:18:54;11;9;
73631;PMS5003;61924;53.268;-2.458;2022-12-18T07:21:20;11;10;
73631;PMS5003;61924;53.268;-2.458;2022-12-18T07:23:46;12;11;
73631;PMS5003;61924;53.268;-2.458;2022-12-18T07:26:12;8;8;
73631;PMS5003;61924;53.268;-2.458;2022-12-18T07:28:37;9;9;
73631;PMS5003;61924;53.268;-2.458;2022-12-18T07:31:02;9;8;
73631;PMS5003;61924;53.268;-2.458;2022-12-18T07:33:27;10;9;
73631;PMS5003;61924;53.268;-2.458;2022-12-18T07:35:52;10;10;
73631;PMS5003;61924;53.268;-2.458;2022-12-18T07:38:18;9;8;
73631;PMS5003;61924;53.268;-2.458;2022-12-18T07:40:44;7;7;
73631;PMS5003;61924;53.268;-2.458;2022-12-18T07:43:09;11;11;
73631;PMS5003;61924;53.268;-2.458;2022-12-18T07:45:34;7;7;
73631;PMS5003;61924;53.268;-2.458;2022-12-18T07:47:59;11;11;
73631;PMS5003;61924;53.268;-2.458;2022-12-18T07:50:25;11;10;
73631;PMS5003;61924;53.268;-2.458;2022-12-18T07:52:50;34;33;
73631;PMS5003;61924;53.268;-2.458;2022-12-18T07:55:16;37;34;
73631;PMS5003;61924;53.268;-2.458;2022-12-18T07:57:41;39;35;
73631;PMS5003;61924;53.268;-2.458;2022-12-18T08:00:07;29;28;
73631;PMS5003;61924;53.268;-2.458;2022-12-18T08:02:32;28;27;
73631;PMS5003;61924;53.268;-2.458;2022-12-18T08:04:58;34;32;
73631;PMS5003;61924;53.268;-2.458;2022-12-18T08:07:23;27;24;
73631;PMS5003;61924;53.268;-2.458;2022-12-18T08:09:49;28;27;
73631;PMS5003;61924;53.268;-2.458;2022-12-18T08:12:14;23;22;
73631;PMS5003;61924;53.268;-2.458;2022-12-18T08:14:39;25;23;
73631;PMS5003;61924;53.268;-2.458;2022-12-18T08:17:05;25;24;
73631;PMS5003;61924;53.268;-2.458;2022-12-18T08:19:30;22;21;
73631;PMS5003;61924;53.268;-2.458;2022-12-18T08:21:55;23;21;
73631;PMS5003;61924;53.268;-2.458;2022-12-18T08:24:21;22;22;
73631;PMS5003;61924;53.268;-2.458;2022-12-18T08:26:47;21;20;
73631;PMS5003;61924;53.268;-2.458;2022-12-18T08:29:12;19;16;
73631;PMS5003;61924;53.268;-2.458;2022-12-18T08:31:37;16;16;
73631;PMS5003;61924;53.268;-2.458;2022-12-18T08:34:02;17;17;
73631;PMS5003;61924;53.268;-2.458;2022-12-18T08:36:28;20;18;
73631;PMS5003;61924;53.268;-2.458;2022-12-18T08:38:54;19;19;
73631;PMS5003;61924;53.268;-2.458;2022-12-18T08:41:20;20;17;
73631;PMS5003;61924;53.268;-2.458;2022-12-18T08:43:44;15;14;
73631;PMS5003;61924;53.268;-2.458;2022-12-18T08:46:10;20;19;
73631;PMS5003;61924;53.268;-2.458;2022-12-18T08:48:36;17;16;
73631;PMS5003;61924;53.268;-2.458;2022-12-18T08:51:01;17;17;
73631;PMS5003;61924;53.268;-2.458;2022-12-18T08:53:26;16;15;
73631;PMS5003;61924;53.268;-2.458;2022-12-18T08:55:53;17;17;
73631;PMS5003;61924;53.268;-2.458;2022-12-18T08:58:18;18;15;
73631;PMS5003;61924;53.268;-2.458;2022-12-18T09:00:43;14;13;
73631;PMS5003;61924;53.268;-2.458;2022-12-18T09:03:10;11;10;
73631;PMS5003;61924;53.268;-2.458;2022-12-18T09:05:34;15;15;
73631;PMS5003;61924;53.268;-2.458;2022-12-18T09:08:00;12;11;
73631;PMS5003;61924;53.268;-2.458;2022-12-18T09:10:25;15;14;
73631;PMS5003;61924;53.268;-2.458;2022-12-18T09:12:50;15;15;
73631;PMS5003;61924;53.268;-2.458;2022-12-18T09:15:15;17;16;
73631;PMS5003;61924;53.268;-2.458;2022-12-18T09:17:41;12;12;
73631;PMS5003;61924;53.268;-2.458;2022-12-18T09:20:07;13;12;
73631;PMS5003;61924;53.268;-2.458;2022-12-18T09:22:32;13;13;
73631;PMS5003;61924;53.268;-2.458;2022-12-18T09:24:58;16;14;
73631;PMS5003;61924;53.268;-2.458;2022-12-18T09:27:24;16;16;
73631;PMS5003;61924;53.268;-2.458;2022-12-18T09:29:49;17;17;
73631;PMS5003;61924;53.268;-2.458;2022-12-18T09:32:14;19;19;
73631;PMS5003;61924;53.268;-2.458;2022-12-18T09:34:40;17;16;
73631;PMS5003;61924;53.268;-2.458;2022-12-18T09:37:05;18;16;
73631;PMS5003;61924;53.268;-2.458;2022-12-18T09:39:31;17;17;
73631;PMS5003;61924;53.268;-2.458;2022-12-18T09:41:57;17;17;
73631;PMS5003;61924;53.268;-2.458;2022-12-18T09:44:23;19;19;
73631;PMS5003;61924;53.268;-2.458;2022-12-18T09:46:49;16;16;
73631;PMS5003;61924;53.268;-2.458;2022-12-18T09:49:13;21;18;
73631;PMS5003;61924;53.268;-2.458;2022-12-18T09:51:39;18;17;
73631;PMS5003;61924;53.268;-2.458;2022-12-18T09:54:04;21;20;
73631;PMS5003;61924;53.268;-2.458;2022-12-18T09:56:30;20;20;
73631;PMS5003;61924;53.268;-2.458;2022-12-18T09:58:55;21;19;
73631;PMS5003;61924;53.268;-2.458;2022-12-18T10:01:21;22;18;
73631;PMS5003;61924;53.268;-2.458;2022-12-18T10:03:45;40;34;
73631;PMS5003;61924;53.268;-2.458;2022-12-18T10:06:11;40;38;
73631;PMS5003;61924;53.268;-2.458;2022-12-18T10:08:37;36;34;
73631;PMS5003;61924;53.268;-2.458;2022-12-18T10:11:09;38;32;
73631;PMS5003;61924;53.268;-2.458;2022-12-18T10:13:29;35;29;
73631;PMS5003;61924;53.268;-2.458;2022-12-18T10:15:56;31;30;
73631;PMS5003;61924;53.268;-2.458;2022-12-18T10:18:22;28;26;
73631;PMS5003;61924;53.268;-2.458;2022-12-18T10:20:44;35;31;
73631;PMS5003;61924;53.268;-2.458;2022-12-18T10:23:11;33;32;
73631;PMS5003;61924;53.268;-2.458;2022-12-18T10:25:37;27;26;
73631;PMS5003;61924;53.268;-2.458;2022-12-18T10:28:07;33;31;
73631;PMS5003;61924;53.268;-2.458;2022-12-18T10:30:26;29;27;
73631;PMS5003;61924;53.268;-2.458;2022-12-18T10:32:52;29;26;
73631;PMS5003;61924;53.268;-2.458;2022-12-18T10:35:18;32;29;
73631;PMS5003;61924;53.268;-2.458;2022-12-18T10:37:59;30;28;
73631;PMS5003;61924;53.268;-2.458;2022-12-18T10:40:09;26;25;
73631;PMS5003;61924;53.268;-2.458;2022-12-18T10:42:33;27;26;
73631;PMS5003;61924;53.268;-2.458;2022-12-18T10:45:01;23;21;
73631;PMS5003;61924;53.268;-2.458;2022-12-18T10:47:24;25;23;
73631;PMS5003;61924;53.268;-2.458;2022-12-18T10:49:51;24;23;
73631;PMS5003;61924;53.268;-2.458;2022-12-18T10:52:15;21;21;
73631;PMS5003;61924;53.268;-2.458;2022-12-18T10:54:45;18;17;
73631;PMS5003;61924;53.268;-2.458;2022-12-18T10:57:31;23;22;
73631;PMS5003;61924;53.268;-2.458;2022-12-18T10:59:31;23;22;
73631;PMS5003;61924;53.268;-2.458;2022-12-18T11:01:56;23;23;
73631;PMS5003;61924;53.268;-2.458;2022-12-18T11:04:22;28;25;
73631;PMS5003;61924;53.268;-2.458;2022-12-18T11:06:56;22;21;
73631;PMS5003;61924;53.268;-2.458;2022-12-18T11:09:19;20;19;
73631;PMS5003;61924;53.268;-2.458;2022-12-18T11:11:37;24;20;
73631;PMS5003;61924;53.268;-2.458;2022-12-18T11:14:05;21;19;
73631;PMS5003;61924;53.268;-2.458;2022-12-18T11:16:29;21;19;
73631;PMS5003;61924;53.268;-2.458;2022-12-18T11:18:53;22;20;
73631;PMS5003;61924;53.268;-2.458;2022-12-18T11:21:19;20;18;
73631;PMS5003;61924;53.268;-2.458;2022-12-18T11:23:46;23;22;
73631;PMS5003;61924;53.268;-2.458;2022-12-18T11:26:11;22;20;
73631;PMS5003;61924;53.268;-2.458;2022-12-18T11:28:37;22;20;
73631;PMS5003;61924;53.268;-2.458;2022-12-18T11:31:11;18;17;
73631;PMS5003;61924;53.268;-2.458;2022-12-18T11:33:27;16;16;
73631;PMS5003;61924;53.268;-2.458;2022-12-18T11:35:53;16;14;
73631;PMS5003;61924;53.268;-2.458;2022-12-18T11:38:19;18;18;
73631;PMS5003;61924;53.268;-2.458;2022-12-18T11:40:43;15;14;
73631;PMS5003;61924;53.268;-2.458;2022-12-18T11:43:10;17;16;
73631;PMS5003;61924;53.268;-2.458;2022-12-18T11:45:34;15;15;
73631;PMS5003;61924;53.268;-2.458;2022-12-18T11:48:01;17;17;
73631;PMS5003;61924;53.268;-2.458;2022-12-18T11:50:26;18;17;
73631;PMS5003;61924;53.268;-2.458;2022-12-18T11:52:51;16;14;
73631;PMS5003;61924;53.268;-2.458;2022-12-18T11:55:19;14;14;
73631;PMS5003;61924;53.268;-2.458;2022-12-18T11:57:44;18;18;
73631;PMS5003;61924;53.268;-2.458;2022-12-18T12:00:11;14;13;
73631;PMS5003;61924;53.268;-2.458;2022-12-18T12:02:36;16;15;
73631;PMS5003;61924;53.268;-2.458;2022-12-18T12:05:02;14;14;
73631;PMS5003;61924;53.268;-2.458;2022-12-18T12:07:27;15;13;
73631;PMS5003;61924;53.268;-2.458;2022-12-18T12:09:50;18;16;
73631;PMS5003;61924;53.268;-2.458;2022-12-18T12:12:18;15;15;
73631;PMS5003;61924;53.268;-2.458;2022-12-18T12:14:43;15;14;
73631;PMS5003;61924;53.268;-2.458;2022-12-18T12:17:06;16;16;
73631;PMS5003;61924;53.268;-2.458;2022-12-18T12:19:33;15;15;
73631;PMS5003;61924;53.268;-2.458;2022-12-18T12:21:58;12;11;
73631;PMS5003;61924;53.268;-2.458;2022-12-18T12:24:24;13;13;
73631;PMS5003;61924;53.268;-2.458;2022-12-18T12:26:49;12;12;
73631;PMS5003;61924;53.268;-2.458;2022-12-18T12:29:20;15;14;
73631;PMS5003;61924;53.268;-2.458;2022-12-18T12:31:42;11;11;
73631;PMS5003;61924;53.268;-2.458;2022-12-18T12:34:04;11;11;
73631;PMS5003;61924;53.268;-2.458;2022-12-18T12:36:31;14;13;
73631;PMS5003;61924;53.268;-2.458;2022-12-18T12:38:54;14;14;
73631;PMS5003;61924;53.268;-2.458;2022-12-18T12:41:20;16;14;
73631;PMS5003;61924;53.268;-2.458;2022-12-18T12:43:44;15;15;
73631;PMS5003;61924;53.268;-2.458;2022-12-18T12:46:10;13;13;
73631;PMS5003;61924;53.268;-2.458;2022-12-18T12:48:37;13;13;
73631;PMS5003;61924;53.268;-2.458;2022-12-18T12:51:01;12;10;
73631;PMS5003;61924;53.268;-2.458;2022-12-18T12:53:26;12;12;
73631;PMS5003;61924;53.268;-2.458;2022-12-18T12:55:51;13;12;
73631;PMS5003;61924;53.268;-2.458;2022-12-18T12:58:17;13;11;
73631;PMS5003;61924;53.268;-2.458;2022-12-18T13:00:44;11;11;
73631;PMS5003;61924;53.268;-2.458;2022-12-18T13:03:08;14;13;
73631;PMS5003;61924;53.268;-2.458;2022-12-18T13:05:34;13;13;
73631;PMS5003;61924;53.268;-2.458;2022-12-18T13:07:59;15;15;
73631;PMS5003;61924;53.268;-2.458;2022-12-18T13:10:28;17;14;
73631;PMS5003;61924;53.268;-2.458;2022-12-18T13:12:51;12;11;
73631;PMS5003;61924;53.268;-2.458;2022-12-18T13:15:20;13;13;
73631;PMS5003;61924;53.268;-2.458;2022-12-18T13:17:41;14;13;
73631;PMS5003;61924;53.268;-2.458;2022-12-18T13:20:07;13;13;
73631;PMS5003;61924;53.268;-2.458;2022-12-18T13:22:33;16;15;
73631;PMS5003;61924;53.268;-2.458;2022-12-18T13:24:57;18;17;
73631;PMS5003;61924;53.268;-2.458;2022-12-18T13:27:57;17;17;
73631;PMS5003;61924;53.268;-2.458;2022-12-18T13:29:48;23;21;
73631;PMS5003;61924;53.268;-2.458;2022-12-18T13:32:21;16;14;
73631;PMS5003;61924;53.268;-2.458;2022-12-18T13:34:38;16;15;
73631;PMS5003;61924;53.268;-2.458;2022-12-18T13:37:42;16;16;
73631;PMS5003;61924;53.268;-2.458;2022-12-18T13:39:31;18;17;
73631;PMS5003;61924;53.268;-2.458;2022-12-18T13:42:25;15;14;
73631;PMS5003;61924;53.268;-2.458;2022-12-18T13:44:25;13;12;
73631;PMS5003;61924;53.268;-2.458;2022-12-18T13:46:45;15;14;
73631;PMS5003;61924;53.268;-2.458;2022-12-18T13:49:17;17;16;
73631;PMS5003;61924;53.268;-2.458;2022-12-18T13:51:36;15;14;
73631;PMS5003;61924;53.268;-2.458;2022-12-18T13:54:02;15;14;
73631;PMS5003;61924;53.268;-2.458;2022-12-18T13:56:28;16;15;
73631;PMS5003;61924;53.268;-2.458;2022-12-18T13:59:11;12;10;
73631;PMS5003;61924;53.268;-2.458;2022-12-18T14:01:22;14;13;
73631;PMS5003;61924;53.268;-2.458;2022-12-18T14:03:43;13;12;
73631;PMS5003;61924;53.268;-2.458;2022-12-18T14:06:08;18;16;
73631;PMS5003;61924;53.268;-2.458;2022-12-18T14:08:37;15;15;
73631;PMS5003;61924;53.268;-2.458;2022-12-18T14:11:00;16;15;
73631;PMS5003;61924;53.268;-2.458;2022-12-18T14:13:26;22;20;
73631;PMS5003;61924;53.268;-2.458;2022-12-18T14:15:51;22;21;
73631;PMS5003;61924;53.268;-2.458;2022-12-18T14:18:19;20;19;
73631;PMS5003;61924;53.268;-2.458;2022-12-18T14:20:43;28;27;
73631;PMS5003;61924;53.268;-2.458;2022-12-18T14:23:23;25;24;
73631;PMS5003;61924;53.268;-2.458;2022-12-18T14:25:32;25;24;
73631;PMS5003;61924;53.268;-2.458;2022-12-18T14:28:02;26;24;
73631;PMS5003;61924;53.268;-2.458;2022-12-18T14:30:23;25;24;
73631;PMS5003;61924;53.268;-2.458;2022-12-18T14:32:59;23;22;
73631;PMS5003;61924;53.268;-2.458;2022-12-18T14:35:14;28;26;
73631;PMS5003;61924;53.268;-2.458;2022-12-18T14:37:40;31;29;
73631;PMS5003;61924;53.268;-2.458;2022-12-18T14:40:11;24;24;
73631;PMS5003;61924;53.268;-2.458;2022-12-18T14:42:31;22;21;
73631;PMS5003;61924;53.268;-2.458;2022-12-18T14:46:02;28;28;
73631;PMS5003;61924;53.268;-2.458;2022-12-18T14:47:22;32;28;
73631;PMS5003;61924;53.268;-2.458;2022-12-18T14:49:48;29;27;
73631;PMS5003;61924;53.268;-2.458;2022-12-18T14:52:18;29;26;
73631;PMS5003;61924;53.268;-2.458;2022-12-18T14:54:39;27;27;
73631;PMS5003;61924;53.268;-2.458;2022-12-18T14:57:05;28;28;
73631;PMS5003;61924;53.268;-2.458;2022-12-18T14:59:30;25;22;
73631;PMS5003;61924;53.268;-2.458;2022-12-18T15:01:58;25;23;
73631;PMS5003;61924;53.268;-2.458;2022-12-18T15:04:24;28;26;
73631;PMS5003;61924;53.268;-2.458;2022-12-18T15:06:46;27;26;
73631;PMS5003;61924;53.268;-2.458;2022-12-18T15:09:21;25;23;
73631;PMS5003;61924;53.268;-2.458;2022-12-18T15:11:44;24;23;
73631;PMS5003;61924;53.268;-2.458;2022-12-18T15:14:38;25;22;
73631;PMS5003;61924;53.268;-2.458;2022-12-18T15:16:27;26;26;
73631;PMS5003;61924;53.268;-2.458;2022-12-18T15:18:53;21;21;
73631;PMS5003;61924;53.268;-2.458;2022-12-18T15:21:19;23;21;
73631;PMS5003;61924;53.268;-2.458;2022-12-18T15:23:46;28;27;
73631;PMS5003;61924;53.268;-2.458;2022-12-18T15:26:09;23;21;
73631;PMS5003;61924;53.268;-2.458;2022-12-18T15:28:35;22;20;
73631;PMS5003;61924;53.268;-2.458;2022-12-18T15:31:02;23;22;
73631;PMS5003;61924;53.268;-2.458;2022-12-18T15:33:26;25;24;
73631;PMS5003;61924;53.268;-2.458;2022-12-18T15:35:55;29;23;
73631;PMS5003;61924;53.268;-2.458;2022-12-18T15:38:16;24;21;
73631;PMS5003;61924;53.268;-2.458;2022-12-18T15:40:42;34;29;
73631;PMS5003;61924;53.268;-2.458;2022-12-18T15:43:07;25;24;
73631;PMS5003;61924;53.268;-2.458;2022-12-18T15:45:33;22;21;
73631;PMS5003;61924;53.268;-2.458;2022-12-18T15:47:59;27;23;
73631;PMS5003;61924;53.268;-2.458;2022-12-18T15:50:24;21;20;
73631;PMS5003;61924;53.268;-2.458;2022-12-18T15:52:49;25;22;
73631;PMS5003;61924;53.268;-2.458;2022-12-18T15:55:15;22;21;
73631;PMS5003;61924;53.268;-2.458;2022-12-18T15:57:40;22;21;
73631;PMS5003;61924;53.268;-2.458;2022-12-18T16:00:05;19;18;
73631;PMS5003;61924;53.268;-2.458;2022-12-18T16:02:30;16;16;